Time;durP1;ratioP1;P1;durP2;ratioP2;P2;SDS_P1;SDS_P2;PMS_P1;PMS_P2;Temp;Humidity;BMP_temperature;BMP_pressure;BME280_temperature;BME280_humidity;BME280_pressure;Samples;Min_cycle;Max_cycle;Signal;HPM_P1;HPM_P2
2023/01/17 00:01:38;;;;;;;3.10;0.30;;;3.90;99.90;;;;;;4990064;28;20044;-36
2023/01/17 00:12:16;;;;;;;0.38;0.10;;;3.90;99.90;;;;;;4987952;28;20051;-36
2023/01/17 00:14:42;;;;;;;1.75;0.10;;;3.90;99.90;;;;;;4990674;28;20126;-39
2023/01/17 00:17:07;;;;;;;5.43;0.10;;;3.90;99.90;;;;;;4991832;28;20132;-37
2023/01/17 01:34:22;;;;;;;1.85;0.20;;;2.90;99.90;;;;;;5005823;28;20191;-38
2023/01/17 01:36:48;;;;;;;3.35;0.15;;;2.80;99.90;;;;;;4949955;28;1081383;-39
2023/01/17 01:39:14;;;;;;;1.48;0.10;;;2.70;99.90;;;;;;5005235;28;20407;-38
2023/01/17 01:41:39;;;;;;;0.88;0.20;;;2.70;99.90;;;;;;5001870;28;20040;-36
2023/01/17 01:44:42;;;;;;;0.55;0.10;;;2.70;99.90;;;;;;4999207;28;20286;-38
2023/01/17 01:47:10;;;;;;;1.85;0.10;;;2.60;99.90;;;;;;5001214;28;20042;-37
2023/01/17 01:49:37;;;;;;;0.65;0.10;;;2.60;99.90;;;;;;4982608;28;20077;-36
2023/01/17 01:52:05;;;;;;;0.47;0.15;;;2.60;99.90;;;;;;5000990;28;20046;-38
2023/01/17 01:54:39;;;;;;;2.20;0.20;;;2.60;99.90;;;;;;4998029;28;20129;-41
2023/01/17 01:57:10;;;;;;;0.85;0.10;;;2.70;99.90;;;;;;5003857;28;20121;-36
2023/01/17 01:59:39;;;;;;;1.55;0.13;;;2.70;99.90;;;;;;5006646;28;20506;-36
2023/01/17 02:02:06;;;;;;;3.08;0.10;;;2.70;99.90;;;;;;4988547;28;20045;-36
2023/01/17 02:04:32;;;;;;;1.42;0.28;;;2.60;99.90;;;;;;5006978;28;20490;-36
2023/01/17 02:07:09;;;;;;;1.75;0.10;;;2.60;99.90;;;;;;5006031;28;20112;-37
2023/01/17 02:09:35;;;;;;;4.10;0.38;;;2.60;99.90;;;;;;5002589;28;20040;-38
2023/01/17 02:12:03;;;;;;;3.63;0.10;;;2.60;99.90;;;;;;5006249;28;20060;-37
2023/01/17 02:14:28;;;;;;;2.90;0.20;;;2.60;99.90;;;;;;5009730;28;20029;-37
2023/01/17 02:17:16;;;;;;;3.17;0.20;;;2.50;99.90;;;;;;5010359;28;20113;-40
2023/01/17 02:20:14;;;;;;;0.30;0.10;;;2.50;99.90;;;;;;5008123;28;20052;-36
2023/01/17 02:22:45;;;;;;;1.80;0.10;;;2.60;99.90;;;;;;5003786;28;20042;-37
2023/01/17 02:25:55;;;;;;;1.90;0.10;;;2.60;99.90;;;;;;5001997;28;20046;-36
2023/01/17 02:29:04;;;;;;;1.70;0.20;;;2.60;99.90;;;;;;4946811;28;20561;-36
2023/01/17 02:31:37;;;;;;;4.32;0.20;;;2.60;99.90;;;;;;5006255;28;20053;-40
2023/01/17 02:34:06;;;;;;;;;;;2.60;99.90;;;;;;5011174;28;20581;-36
2023/01/17 02:36:37;;;;;;;0.85;0.10;;;2.60;99.90;;;;;;4991369;28;20013;-37
2023/01/17 02:39:18;;;;;;;0.73;0.10;;;2.60;99.90;;;;;;4990586;28;20411;-36
2023/01/17 02:41:52;;;;;;;0.73;0.00;;;2.50;99.90;;;;;;4985300;28;20129;-39
2023/01/17 02:44:19;;;;;;;3.78;0.20;;;2.50;99.90;;;;;;4985254;28;20046;-38
2023/01/17 02:46:47;;;;;;;1.13;0.10;;;2.50;99.90;;;;;;4986889;28;20158;-38
2023/01/17 02:49:15;;;;;;;2.25;0.10;;;2.60;99.90;;;;;;4988857;28;20077;-36
2023/01/17 02:51:53;;;;;;;0.95;0.10;;;2.60;99.90;;;;;;4987113;28;20043;-35
2023/01/17 02:54:54;;;;;;;1.67;0.10;;;2.60;99.90;;;;;;4985596;28;20076;-36
2023/01/17 02:57:53;;;;;;;1.70;0.47;;;2.50;99.90;;;;;;4974974;28;20049;-36
2023/01/17 03:00:29;;;;;;;2.65;0.10;;;2.50;99.90;;;;;;4987413;28;20035;-36
2023/01/17 03:03:21;;;;;;;0.52;0.10;;;2.50;99.90;;;;;;4983350;28;20040;-36
2023/01/17 03:06:11;;;;;;;0.30;0.00;;;2.40;99.90;;;;;;4987469;28;20150;-36
2023/01/17 03:08:40;;;;;;;3.05;0.20;;;2.40;99.90;;;;;;4988581;28;20548;-36
2023/01/17 03:11:10;;;;;;;3.53;0.30;;;2.40;99.90;;;;;;4992279;28;20052;-36
2023/01/17 03:13:36;;;;;;;2.15;0.20;;;2.40;99.90;;;;;;4988869;28;20050;-37
2023/01/17 03:16:05;;;;;;;3.97;0.30;;;2.40;99.90;;;;;;4986730;28;20069;-36
2023/01/17 03:18:31;;;;;;;2.90;0.20;;;2.40;99.90;;;;;;4988819;28;20538;-39
2023/01/17 03:20:57;;;;;;;3.78;0.50;;;2.30;99.90;;;;;;4991730;28;20051;-36
2023/01/17 03:23:22;;;;;;;3.20;0.35;;;2.30;99.90;;;;;;4990985;28;20042;-37
2023/01/17 03:25:48;;;;;;;3.20;0.20;;;2.30;99.90;;;;;;4986712;28;20069;-37
2023/01/17 03:28:14;;;;;;;5.68;0.32;;;2.20;99.90;;;;;;4991736;28;20085;-36
2023/01/17 03:30:39;;;;;;;2.05;0.47;;;2.20;99.90;;;;;;4991308;28;20034;-37
2023/01/17 03:33:05;;;;;;;1.77;0.20;;;2.20;99.90;;;;;;4990355;28;21524;-35
2023/01/17 03:35:31;;;;;;;3.35;0.40;;;2.10;99.90;;;;;;4996761;28;20065;-35
2023/01/17 03:37:56;;;;;;;3.58;0.20;;;2.20;99.90;;;;;;5009341;28;20162;-39
2023/01/17 03:40:22;;;;;;;4.13;1.20;;;2.10;99.90;;;;;;5007739;28;20045;-36
2023/01/17 03:42:48;;;;;;;1.83;0.32;;;2.10;99.90;;;;;;5009300;28;20056;-36
2023/01/17 03:45:13;;;;;;;4.30;0.52;;;2.00;99.90;;;;;;5010215;28;20083;-36
2023/01/17 03:47:39;;;;;;;4.47;0.25;;;2.00;99.90;;;;;;5003612;28;20038;-38
2023/01/17 03:50:05;;;;;;;3.38;0.38;;;2.00;99.90;;;;;;5004661;28;21296;-36
2023/01/17 03:52:31;;;;;;;0.75;0.20;;;1.90;99.90;;;;;;5004758;28;20034;-36
2023/01/17 03:54:57;;;;;;;3.70;0.30;;;1.90;99.90;;;;;;5003281;28;20046;-39
2023/01/17 03:57:22;;;;;;;4.75;0.30;;;1.90;99.90;;;;;;5006653;28;20161;-38
2023/01/17 03:59:48;;;;;;;3.45;0.22;;;1.90;99.90;;;;;;5005936;28;20486;-39
2023/01/17 04:02:14;;;;;;;4.15;0.20;;;1.80;99.90;;;;;;5007902;28;20048;-36
2023/01/17 04:04:39;;;;;;;3.33;0.17;;;1.80;99.90;;;;;;5007654;28;20046;-36
2023/01/17 04:07:05;;;;;;;1.98;0.10;;;1.80;99.90;;;;;;5008168;28;20045;-36
2023/01/17 04:09:32;;;;;;;2.75;0.25;;;1.80;99.90;;;;;;5017184;28;20037;-39
2023/01/17 04:11:59;;;;;;;0.65;0.10;;;1.80;99.90;;;;;;5006841;28;20042;-37
2023/01/17 04:14:25;;;;;;;2.47;0.10;;;1.80;99.90;;;;;;5007489;28;20474;-36
2023/01/17 04:16:51;;;;;;;4.55;0.20;;;1.80;99.90;;;;;;5010548;28;20087;-38
2023/01/17 04:19:17;;;;;;;4.68;0.35;;;1.80;99.90;;;;;;5011348;28;20835;-36
2023/01/17 04:21:42;;;;;;;2.05;0.20;;;1.80;99.90;;;;;;5009143;28;20045;-36
2023/01/17 04:24:08;;;;;;;1.58;0.20;;;1.80;99.90;;;;;;4990753;28;20044;-36
2023/01/17 04:26:34;;;;;;;1.83;0.10;;;1.70;99.90;;;;;;5012006;28;20089;-38
2023/01/17 04:28:59;;;;;;;2.75;0.20;;;1.70;99.90;;;;;;5009083;28;20038;-36
2023/01/17 04:31:25;;;;;;;3.20;0.20;;;1.80;99.90;;;;;;5007211;28;20045;-36
2023/01/17 04:33:51;;;;;;;1.88;0.10;;;1.80;99.90;;;;;;5013142;28;20129;-35
2023/01/17 04:36:16;;;;;;;1.92;0.10;;;1.90;99.90;;;;;;5015897;28;20594;-39
2023/01/17 04:38:42;;;;;;;2.45;0.10;;;1.90;99.90;;;;;;5008416;28;20592;-36
2023/01/17 04:41:08;;;;;;;5.90;0.47;;;2.00;99.90;;;;;;5005042;28;20039;-36
2023/01/17 04:43:34;;;;;;;6.60;0.77;;;2.10;99.90;;;;;;5007502;28;20034;-36
2023/01/17 04:46:00;;;;;;;1.08;0.10;;;2.10;99.90;;;;;;5008728;28;20058;-36
2023/01/17 04:48:26;;;;;;;1.35;0.10;;;2.20;99.90;;;;;;5007941;28;20040;-37
2023/01/17 04:50:59;;;;;;;2.03;0.40;;;2.20;99.90;;;;;;5006342;28;20127;-36
2023/01/17 04:53:24;;;;;;;3.55;0.30;;;2.20;99.90;;;;;;5001317;28;20045;-38
2023/01/17 04:55:50;;;;;;;4.57;0.20;;;2.10;99.90;;;;;;5010853;28;20040;-35
2023/01/17 04:58:16;;;;;;;2.70;0.20;;;2.20;99.90;;;;;;5008520;28;20125;-36
2023/01/17 05:00:41;;;;;;;2.65;0.30;;;2.10;99.90;;;;;;5007823;28;20121;-36
2023/01/17 05:03:07;;;;;;;2.72;0.30;;;2.10;99.90;;;;;;4987269;28;20046;-36
2023/01/17 05:05:33;;;;;;;4.70;0.63;;;2.10;99.90;;;;;;5005480;28;20487;-35
2023/01/17 05:07:58;;;;;;;2.90;0.13;;;2.10;99.90;;;;;;5008554;28;20056;-37
2023/01/17 05:10:24;;;;;;;3.67;0.35;;;2.10;99.90;;;;;;5006958;28;20569;-38
2023/01/17 05:12:55;;;;;;;3.65;0.20;;;2.00;99.90;;;;;;5004752;28;20472;-36
2023/01/17 05:15:21;;;;;;;5.80;0.50;;;2.00;99.90;;;;;;5007368;28;20072;-36
2023/01/17 05:17:47;;;;;;;1.55;0.20;;;2.00;99.90;;;;;;5005337;28;20056;-36
2023/01/17 05:20:13;;;;;;;4.57;0.10;;;1.90;99.90;;;;;;4994723;28;20427;-35
2023/01/17 05:22:38;;;;;;;2.35;0.25;;;1.90;99.90;;;;;;4999832;28;20088;-36
2023/01/17 05:25:05;;;;;;;3.53;0.30;;;2.00;99.90;;;;;;5004725;28;20033;-36
2023/01/17 05:27:30;;;;;;;0.90;0.10;;;2.10;99.90;;;;;;4990064;28;20046;-37
2023/01/17 05:29:56;;;;;;;6.97;0.30;;;2.10;99.90;;;;;;5007425;28;20480;-37
2023/01/17 05:32:21;;;;;;;2.30;0.43;;;2.10;99.90;;;;;;5007306;28;20054;-36
2023/01/17 05:34:47;;;;;;;0.68;0.10;;;2.10;99.90;;;;;;5004842;28;20049;-36
2023/01/17 05:37:13;;;;;;;0.80;0.10;;;2.10;99.90;;;;;;5007973;28;20108;-38
2023/01/17 05:39:38;;;;;;;1.67;0.20;;;2.00;99.90;;;;;;5007400;28;20152;-35
2023/01/17 05:42:04;;;;;;;6.65;0.43;;;1.90;99.90;;;;;;5002387;28;20037;-35
2023/01/17 05:44:30;;;;;;;1.63;0.13;;;1.90;99.90;;;;;;5010536;28;20041;-36
2023/01/17 05:46:55;;;;;;;1.15;0.20;;;1.80;99.90;;;;;;5003987;28;20561;-38
2023/01/17 05:49:21;;;;;;;1.35;0.10;;;1.80;99.90;;;;;;5007579;28;20766;-36
2023/01/17 05:51:47;;;;;;;6.78;0.30;;;1.80;99.90;;;;;;4989737;28;20050;-37
2023/01/17 05:54:12;;;;;;;2.85;0.20;;;1.70;99.90;;;;;;5005768;28;20577;-38
2023/01/17 05:56:38;;;;;;;0.28;0.15;;;1.70;99.90;;;;;;5005737;28;20030;-36
2023/01/17 05:59:04;;;;;;;0.65;0.00;;;1.70;99.90;;;;;;5004188;28;20088;-36
2023/01/17 06:01:29;;;;;;;3.70;0.22;;;1.70;99.90;;;;;;5005261;28;20092;-36
2023/01/17 06:03:55;;;;;;;1.38;0.65;;;1.70;99.90;;;;;;4987530;28;20462;-35
2023/01/17 06:06:21;;;;;;;1.58;0.00;;;1.70;99.90;;;;;;5002096;28;20034;-36
2023/01/17 06:08:46;;;;;;;2.67;0.20;;;1.70;99.90;;;;;;5005835;28;20045;-37
2023/01/17 06:11:12;;;;;;;1.42;0.15;;;1.70;99.90;;;;;;4999894;28;20069;-36
2023/01/17 06:13:38;;;;;;;1.98;0.30;;;1.70;99.90;;;;;;5001680;28;20034;-37
2023/01/17 06:16:04;;;;;;;5.60;0.80;;;1.70;99.90;;;;;;5004417;28;20052;-36
2023/01/17 06:18:30;;;;;;;3.38;0.30;;;1.70;99.90;;;;;;5006444;28;20030;-35
2023/01/17 06:20:56;;;;;;;5.88;0.30;;;1.70;99.90;;;;;;5005242;28;20410;-38
2023/01/17 06:23:23;;;;;;;1.80;0.00;;;1.60;99.90;;;;;;5006096;28;20033;-36
2023/01/17 06:25:49;;;;;;;7.07;0.40;;;1.60;99.90;;;;;;5002500;28;20041;-36
2023/01/17 06:28:17;;;;;;;3.60;0.35;;;1.60;99.90;;;;;;5007592;28;20044;-36
2023/01/17 06:30:44;;;;;;;3.28;0.15;;;1.50;99.90;;;;;;5007363;28;20045;-35
2023/01/17 06:33:11;;;;;;;3.70;0.20;;;1.50;99.90;;;;;;5010667;28;20100;-36
2023/01/17 06:35:39;;;;;;;4.05;0.30;;;1.50;99.90;;;;;;5005500;28;20064;-38
2023/01/17 06:38:06;;;;;;;4.78;0.50;;;1.40;99.90;;;;;;5002561;28;20508;-36
2023/01/17 06:40:32;;;;;;;2.05;0.35;;;1.40;99.90;;;;;;4997242;28;20894;-38
2023/01/17 06:43:02;;;;;;;4.03;0.35;;;1.30;99.90;;;;;;4993067;28;20046;-37
2023/01/17 06:45:29;;;;;;;2.88;0.30;;;1.30;99.90;;;;;;4997454;28;20049;-37
2023/01/17 06:47:55;;;;;;;3.30;0.60;;;1.20;99.90;;;;;;5001721;28;20140;-37
2023/01/17 06:50:21;;;;;;;0.90;0.10;;;1.20;99.90;;;;;;4998587;28;20543;-38
2023/01/17 06:53:01;;;;;;;4.22;0.50;;;1.10;99.90;;;;;;5003815;28;20080;-36
2023/01/17 06:55:28;;;;;;;4.03;0.52;;;1.10;99.90;;;;;;5001674;28;20546;-36
2023/01/17 06:57:56;;;;;;;1.17;0.20;;;1.00;99.90;;;;;;5004179;28;20050;-38
2023/01/17 07:00:22;;;;;;;2.22;0.20;;;1.00;99.90;;;;;;5000110;28;20514;-37
2023/01/17 07:02:49;;;;;;;3.17;0.38;;;0.90;99.90;;;;;;5006939;28;20491;-38
2023/01/17 07:05:16;;;;;;;2.03;0.20;;;0.90;99.90;;;;;;5002787;28;20566;-35
2023/01/17 07:07:42;;;;;;;3.83;0.13;;;0.90;99.90;;;;;;5005264;28;20084;-37
2023/01/17 07:10:09;;;;;;;1.77;0.85;;;0.90;99.90;;;;;;5003505;28;20071;-38
2023/01/17 07:12:35;;;;;;;0.73;0.08;;;0.80;99.90;;;;;;4998773;28;20049;-38
2023/01/17 07:15:00;;;;;;;1.35;0.10;;;0.90;99.90;;;;;;4988951;28;20049;-38
2023/01/17 07:17:26;;;;;;;2.00;0.10;;;0.90;99.90;;;;;;5001085;28;20065;-37
2023/01/17 07:19:52;;;;;;;4.93;0.20;;;0.90;99.90;;;;;;4999022;28;20038;-36
2023/01/17 07:22:18;;;;;;;0.85;0.20;;;0.90;99.90;;;;;;5005857;28;20450;-37
2023/01/17 07:24:43;;;;;;;2.35;0.17;;;1.00;99.90;;;;;;5006021;28;20482;-36
2023/01/17 07:27:09;;;;;;;4.47;0.28;;;1.00;99.90;;;;;;5002519;28;20531;-36
2023/01/17 07:29:35;;;;;;;2.38;0.20;;;1.00;99.90;;;;;;5003834;28;20100;-36
2023/01/17 07:32:02;;;;;;;2.45;0.50;;;1.00;99.90;;;;;;5004663;28;20388;-38
2023/01/17 07:34:27;;;;;;;3.17;0.10;;;0.90;99.90;;;;;;5005434;28;20068;-36
2023/01/17 07:36:53;;;;;;;5.68;0.38;;;0.90;99.90;;;;;;4990596;28;20169;-35
2023/01/17 07:39:19;;;;;;;2.97;0.30;;;0.90;99.90;;;;;;4985452;28;20045;-36
2023/01/17 07:41:46;;;;;;;4.95;0.30;;;0.90;99.90;;;;;;4991859;28;20049;-36
2023/01/17 07:44:12;;;;;;;2.83;0.52;;;0.90;99.90;;;;;;4985249;28;20074;-37
2023/01/17 07:46:38;;;;;;;3.75;0.20;;;0.90;99.90;;;;;;4989649;28;20042;-36
2023/01/17 07:49:04;;;;;;;1.00;0.20;;;0.90;99.90;;;;;;4987829;28;20046;-36
2023/01/17 07:51:30;;;;;;;4.32;0.40;;;0.80;99.90;;;;;;4989775;28;20053;-35
2023/01/17 07:53:56;;;;;;;1.27;0.40;;;0.80;99.90;;;;;;4985783;28;20785;-37
2023/01/17 07:56:21;;;;;;;2.50;0.20;;;0.80;99.90;;;;;;4987504;28;20038;-37
2023/01/17 07:58:50;;;;;;;2.33;0.30;;;0.80;99.90;;;;;;4997499;28;20049;-36
2023/01/17 08:01:16;;;;;;;3.70;0.30;;;0.80;99.90;;;;;;4997290;28;20066;-36
2023/01/17 08:03:42;;;;;;;3.72;0.80;;;0.80;99.90;;;;;;4990949;28;20112;-36
2023/01/17 08:06:20;;;;;;;4.38;0.50;;;0.80;99.90;;;;;;4990860;28;20078;-38
2023/01/17 08:08:46;;;;;;;3.28;0.40;;;0.80;99.90;;;;;;4990152;28;20066;-36
2023/01/17 08:11:13;;;;;;;3.35;0.55;;;0.80;99.90;;;;;;4992075;28;20543;-38
2023/01/17 08:13:39;;;;;;;5.53;0.63;;;0.80;99.90;;;;;;5000254;28;20069;-37
2023/01/17 08:16:05;;;;;;;6.20;0.90;;;0.80;99.90;;;;;;4985055;28;20041;-37
2023/01/17 08:18:31;;;;;;;3.85;0.65;;;0.70;99.90;;;;;;4993900;28;20543;-37
2023/01/17 08:20:56;;;;;;;6.30;1.35;;;0.70;99.90;;;;;;4995749;28;20161;-36
2023/01/17 08:23:22;;;;;;;4.25;0.57;;;0.70;99.90;;;;;;4986308;28;20038;-37
2023/01/17 08:25:47;;;;;;;4.75;0.90;;;0.70;99.90;;;;;;4991241;28;20039;-37
2023/01/17 08:28:14;;;;;;;1.38;0.43;;;0.70;99.90;;;;;;4992233;28;20484;-37
2023/01/17 08:30:40;;;;;;;4.32;0.43;;;0.70;99.90;;;;;;4992821;28;20042;-37
2023/01/17 08:33:06;;;;;;;4.28;0.70;;;0.70;99.90;;;;;;4993293;28;20403;-36
2023/01/17 08:35:33;;;;;;;1.33;0.30;;;0.70;99.90;;;;;;5000073;28;20538;-38
2023/01/17 08:38:03;;;;;;;3.58;0.55;;;0.70;99.90;;;;;;4998000;28;20460;-37
2023/01/17 08:40:31;;;;;;;6.47;0.80;;;0.70;99.90;;;;;;5010793;28;20502;-35
2023/01/17 08:42:58;;;;;;;4.25;0.73;;;0.80;99.90;;;;;;5006939;28;20495;-36
2023/01/17 08:45:25;;;;;;;3.00;0.57;;;0.80;99.90;;;;;;5007168;28;20043;-36
2023/01/17 08:47:51;;;;;;;4.97;0.80;;;0.80;99.90;;;;;;5008960;28;20046;-36
2023/01/17 08:50:20;;;;;;;2.33;0.70;;;0.80;99.90;;;;;;5010922;28;20041;-36
2023/01/17 08:52:56;;;;;;;1.25;0.32;;;0.80;99.90;;;;;;5005785;28;20041;-36
2023/01/17 08:55:21;;;;;;;3.78;0.60;;;0.80;99.90;;;;;;4997817;28;20065;-36
2023/01/17 08:57:47;;;;;;;2.80;0.47;;;0.90;99.90;;;;;;5003518;28;20129;-36
2023/01/17 09:00:13;;;;;;;2.50;0.70;;;0.90;99.90;;;;;;5006338;28;20080;-36
2023/01/17 09:02:39;;;;;;;5.53;0.82;;;0.90;99.90;;;;;;4999599;28;20052;-39
2023/01/17 09:05:05;;;;;;;2.38;0.60;;;1.00;99.90;;;;;;5004726;28;20033;-37
2023/01/17 09:07:30;;;;;;;6.40;0.60;;;1.00;99.90;;;;;;5001444;28;20053;-36
2023/01/17 09:09:56;;;;;;;5.32;0.90;;;1.00;99.90;;;;;;5006276;28;20042;-36
2023/01/17 09:12:22;;;;;;;2.78;0.57;;;1.10;99.90;;;;;;5002415;28;20503;-38
2023/01/17 09:14:48;;;;;;;5.63;0.65;;;1.20;99.90;;;;;;5006046;28;20075;-36
2023/01/17 09:17:14;;;;;;;3.17;0.50;;;1.20;99.90;;;;;;5006305;28;20084;-37
2023/01/17 09:19:43;;;;;;;3.53;0.50;;;1.20;99.90;;;;;;5006494;28;20521;-37
2023/01/17 09:22:10;;;;;;;3.40;0.47;;;1.30;99.90;;;;;;5006165;28;20041;-37
2023/01/17 09:24:36;;;;;;;1.85;0.73;;;1.30;99.90;;;;;;5008254;28;20042;-38
2023/01/17 09:27:02;;;;;;;4.53;0.60;;;1.30;99.90;;;;;;5002249;28;20476;-37
2023/01/17 09:29:29;;;;;;;3.80;1.92;;;1.40;99.90;;;;;;5012085;28;20037;-38
2023/01/17 09:31:55;;;;;;;2.35;0.57;;;1.50;99.90;;;;;;5006736;28;20048;-36
2023/01/17 09:34:23;;;;;;;3.05;0.68;;;1.50;99.90;;;;;;5012397;28;20561;-38
2023/01/17 09:36:49;;;;;;;5.25;0.80;;;1.50;99.90;;;;;;5005229;28;20582;-38
2023/01/17 09:39:14;;;;;;;3.85;1.00;;;1.60;99.90;;;;;;5008283;28;20127;-37
2023/01/17 09:41:59;;;;;;;2.00;0.50;;;1.70;99.90;;;;;;5008949;28;20049;-36
2023/01/17 09:44:45;;;;;;;8.07;0.70;;;1.70;99.90;;;;;;5013242;28;20469;-36
2023/01/17 09:47:52;;;;;;;2.60;0.75;;;1.80;99.90;;;;;;5006554;28;20061;-37
2023/01/17 09:50:32;;;;;;;4.30;0.60;;;1.90;99.90;;;;;;4995551;28;20046;-37
2023/01/17 09:53:14;;;;;;;4.63;0.90;;;2.00;99.90;;;;;;5011254;28;20050;-39
2023/01/17 09:55:56;;;;;;;3.28;0.65;;;2.10;99.90;;;;;;5004550;28;20034;-36
2023/01/17 09:58:24;;;;;;;5.03;0.80;;;2.20;99.90;;;;;;5007684;28;21066;-36
2023/01/17 10:01:18;;;;;;;2.63;0.63;;;2.30;99.90;;;;;;5007039;28;20049;-35
2023/01/17 10:04:17;;;;;;;2.88;0.60;;;2.40;99.90;;;;;;5006962;28;20065;-37
2023/01/17 10:07:09;;;;;;;1.90;0.50;;;2.50;99.90;;;;;;5013549;28;20057;-36
2023/01/17 10:10:04;;;;;;;5.00;1.00;;;2.60;99.90;;;;;;5001469;28;20045;-38
2023/01/17 10:12:54;;;;;;;4.68;0.70;;;2.60;99.90;;;;;;5006402;28;20120;-37
2023/01/17 10:15:54;;;;;;;5.35;0.60;;;2.70;99.90;;;;;;5003250;28;20663;-39
2023/01/17 10:18:41;;;;;;;4.63;0.60;;;2.80;99.90;;;;;;5005975;28;20038;-36
2023/01/17 10:21:43;;;;;;;4.15;0.60;;;2.80;99.90;;;;;;5006619;28;20384;-38
2023/01/17 10:24:51;;;;;;;8.20;0.63;;;2.80;99.90;;;;;;5007124;28;20410;-36
2023/01/17 10:27:33;;;;;;;1.73;0.40;;;2.90;99.90;;;;;;4967478;28;20049;-36
2023/01/17 10:30:02;;;;;;;2.08;0.52;;;2.90;99.90;;;;;;5002534;28;20041;-37
2023/01/17 10:32:31;;;;;;;4.07;0.60;;;3.00;99.90;;;;;;5008210;28;20041;-37
2023/01/17 10:35:04;;;;;;;3.53;0.57;;;3.00;99.90;;;;;;5001924;28;20057;-37
2023/01/17 10:37:35;;;;;;;;;;;3.00;99.90;;;;;;5009183;28;20050;-39
2023/01/17 10:40:18;;;;;;;2.75;0.63;;;3.10;99.90;;;;;;4990347;28;20412;-39
2023/01/17 10:43:00;;;;;;;3.50;0.57;;;3.10;99.90;;;;;;5007657;28;20115;-40
2023/01/17 10:45:27;;;;;;;4.70;0.73;;;3.10;99.90;;;;;;5006444;28;20042;-35
2023/01/17 10:48:15;;;;;;;3.03;0.82;;;3.20;99.90;;;;;;5009682;28;20368;-36
2023/01/17 10:50:57;;;;;;;5.65;0.77;;;3.20;99.90;;;;;;5010482;28;20041;-35
2023/01/17 10:53:53;;;;;;;2.40;0.70;;;3.20;99.90;;;;;;5009845;28;20109;-35
2023/01/17 10:56:20;;;;;;;;;;;3.30;99.90;;;;;;5007666;28;20046;-37
2023/01/17 10:58:47;;;;;;;2.67;0.90;;;3.40;99.90;;;;;;5008401;28;19928;-36
2023/01/17 11:01:19;;;;;;;1.80;0.57;;;3.50;99.90;;;;;;5002193;28;20034;-37
2023/01/17 11:03:53;;;;;;;3.50;0.70;;;3.50;99.90;;;;;;5005073;28;20097;-37
2023/01/17 11:06:21;;;;;;;1.77;0.60;;;3.70;99.90;;;;;;5008711;28;20049;-37
2023/01/17 11:08:56;;;;;;;2.92;0.80;;;4.00;99.90;;;;;;5010135;28;20491;-37
2023/01/17 11:11:30;;;;;;;10.07;0.85;;;4.50;99.90;;;;;;5008289;28;20068;-37
2023/01/17 11:14:05;;;;;;;2.55;0.63;;;5.00;99.90;;;;;;5005836;28;20042;-41
2023/01/17 11:16:31;;;;;;;3.10;1.10;;;5.40;99.90;;;;;;5004545;28;20033;-37
2023/01/17 11:19:27;;;;;;;5.03;1.20;;;5.70;99.90;;;;;;5003958;28;20049;-36
2023/01/17 11:21:57;;;;;;;2.00;0.50;;;5.90;99.90;;;;;;5008409;28;20147;-39
2023/01/17 11:24:35;;;;;;;4.93;1.23;;;6.20;99.90;;;;;;5014065;28;20521;-37
2023/01/17 11:27:04;;;;;;;4.85;1.00;;;6.30;99.90;;;;;;4987652;28;20054;-37
2023/01/17 11:29:38;;;;;;;3.38;0.70;;;6.40;99.90;;;;;;5007324;28;20040;-38
2023/01/17 11:32:30;;;;;;;3.83;0.60;;;6.60;99.90;;;;;;5005512;28;20053;-38
2023/01/17 11:35:16;;;;;;;3.92;0.70;;;6.60;99.90;;;;;;5006360;28;20503;-39
2023/01/17 11:37:49;;;;;;;3.78;0.55;;;6.80;99.90;;;;;;5007631;28;20603;-38
2023/01/17 11:40:28;;;;;;;4.00;0.60;;;6.90;99.90;;;;;;4990290;28;20042;-36
2023/01/17 11:43:04;;;;;;;2.80;0.50;;;7.00;99.90;;;;;;5007607;28;20057;-37
2023/01/17 11:45:32;;;;;;;6.32;0.63;;;7.10;99.90;;;;;;5006044;28;20491;-38
2023/01/17 11:48:07;;;;;;;2.38;0.60;;;7.30;99.80;;;;;;5008181;28;20077;-37
2023/01/17 11:50:35;;;;;;;4.15;1.25;;;7.10;98.90;;;;;;5012579;28;20549;-37
2023/01/17 11:53:06;;;;;;;2.88;1.05;;;6.90;99.90;;;;;;5010749;28;20403;-37
2023/01/17 11:55:32;;;;;;;1.80;0.80;;;6.80;99.70;;;;;;5008881;28;20055;-40
2023/01/17 11:57:58;;;;;;;3.42;0.60;;;7.00;99.50;;;;;;5011695;28;20041;-37
2023/01/17 12:00:33;;;;;;;3.75;0.68;;;7.30;99.90;;;;;;5010714;28;20041;-35
2023/01/17 12:03:08;;;;;;;4.88;0.50;;;7.50;99.40;;;;;;5006702;28;20099;-35
2023/01/17 12:05:40;;;;;;;4.18;0.60;;;7.60;98.10;;;;;;4994433;28;20037;-37
2023/01/17 12:08:27;;;;;;;6.22;0.85;;;7.60;96.70;;;;;;5014765;28;20045;-37
2023/01/17 12:11:18;;;;;;;2.90;0.77;;;7.80;97.30;;;;;;5009660;28;20052;-36
2023/01/17 12:14:18;;;;;;;4.32;0.93;;;8.10;97.30;;;;;;5009677;28;20088;-35
2023/01/17 12:17:02;;;;;;;1.85;0.50;;;8.30;97.40;;;;;;5002287;28;20068;-36
2023/01/17 12:19:31;;;;;;;3.30;0.50;;;8.20;96.50;;;;;;5007189;28;20503;-38
2023/01/17 12:22:42;;;;;;;2.20;0.50;;;8.40;97.10;;;;;;5011465;28;20041;-35
2023/01/17 12:25:26;;;;;;;3.42;0.50;;;8.40;92.20;;;;;;5006891;28;20061;-38
2023/01/17 12:28:08;;;;;;;2.83;0.50;;;8.40;92.40;;;;;;5007290;28;20499;-36
2023/01/17 12:30:40;;;;;;;;;;;8.50;86.20;;;;;;4987873;28;20530;-35
2023/01/17 12:33:17;;;;;;;1.98;0.50;;;8.60;90.10;;;;;;5006842;28;19921;-35
2023/01/17 12:35:55;;;;;;;4.20;0.50;;;8.80;89.90;;;;;;5004595;28;20076;-35
2023/01/17 12:38:29;;;;;;;6.03;1.08;;;8.90;90.60;;;;;;5016283;28;20521;-35
2023/01/17 12:41:06;;;;;;;1.90;0.40;;;9.20;92.00;;;;;;5010918;28;20034;-40
2023/01/17 12:43:39;;;;;;;4.03;0.52;;;9.10;86.70;;;;;;5010103;28;20069;-36
2023/01/17 12:46:31;;;;;;;1.85;0.38;;;9.20;85.10;;;;;;5011656;28;20534;-36
2023/01/17 12:49:15;;;;;;;2.10;0.43;;;9.20;75.60;;;;;;4999401;28;20554;-35
2023/01/17 12:51:43;;;;;;;2.65;0.60;;;9.30;84.90;;;;;;5004968;28;20529;-35
2023/01/17 12:54:36;;;;;;;2.05;0.50;;;9.60;87.60;;;;;;5011217;28;20042;-36
2023/01/17 12:57:11;;;;;;;4.82;0.85;;;9.60;77.70;;;;;;5010073;28;20073;-36
2023/01/17 12:59:49;;;;;;;4.60;0.47;;;9.80;85.90;;;;;;5010184;28;20100;-37
2023/01/17 13:02:34;;;;;;;1.63;0.57;;;9.70;80.10;;;;;;5006809;28;20045;-36
2023/01/17 13:05:22;;;;;;;2.53;0.40;;;9.90;84.00;;;;;;5003723;28;21351;-36
2023/01/17 13:08:16;;;;;;;5.82;0.50;;;9.90;73.60;;;;;;5000995;28;20046;-37
2023/01/17 13:10:46;;;;;;;4.65;0.50;;;9.90;71.90;;;;;;5013644;28;20552;-35
2023/01/17 13:13:21;;;;;;;1.38;0.32;;;10.20;78.90;;;;;;5009040;28;20041;-37
2023/01/17 13:15:51;;;;;;;2.53;0.50;;;10.00;74.30;;;;;;5013121;28;20085;-37
2023/01/17 13:18:24;;;;;;;1.85;0.47;;;10.00;75.20;;;;;;5005142;28;20144;-36
2023/01/17 13:21:20;;;;;;;3.75;0.60;;;9.70;73.70;;;;;;5006516;28;20044;-37
2023/01/17 13:23:58;;;;;;;1.35;0.60;;;9.70;73.60;;;;;;5001793;28;20053;-37
2023/01/17 13:26:50;;;;;;;1.83;0.50;;;9.80;78.40;;;;;;5010884;28;20049;-37
2023/01/17 13:29:48;;;;;;;2.15;0.40;;;9.90;73.50;;;;;;5007695;28;20048;-37
2023/01/17 13:32:26;;;;;;;1.25;0.30;;;10.10;75.40;;;;;;5005367;28;20491;-38
2023/01/17 13:35:12;;;;;;;2.95;0.45;;;10.20;80.20;;;;;;5012292;28;20049;-36
2023/01/17 13:37:40;;;;;;;2.08;0.30;;;10.20;76.90;;;;;;5009367;28;20509;-37
2023/01/17 13:40:29;;;;;;;3.25;0.47;;;10.10;77.40;;;;;;5009170;28;20144;-36
2023/01/17 13:42:59;;;;;;;4.82;0.50;;;10.20;73.90;;;;;;5010406;28;20546;-36
2023/01/17 13:45:31;;;;;;;1.83;0.32;;;10.10;74.90;;;;;;5009160;28;20080;-37
2023/01/17 13:48:30;;;;;;;4.70;0.40;;;9.90;76.10;;;;;;5009107;28;20052;-36
2023/01/17 13:51:02;;;;;;;3.85;0.55;;;9.90;74.50;;;;;;4970071;28;20507;-36
2023/01/17 13:53:27;;;;;;;2.88;0.63;;;9.90;68.90;;;;;;5007582;28;20125;-36
2023/01/17 13:56:18;;;;;;;2.08;0.47;;;9.90;72.90;;;;;;5004248;28;20172;-37
2023/01/17 13:58:53;;;;;;;2.92;0.52;;;10.30;71.00;;;;;;5005316;28;20723;-36
2023/01/17 14:01:21;;;;;;;1.02;0.35;;;10.30;72.60;;;;;;5004270;28;20563;-38
2023/01/17 14:03:52;;;;;;;3.03;0.40;;;10.40;64.30;;;;;;5003980;28;20525;-36
2023/01/17 14:06:39;;;;;;;1.98;0.60;;;10.00;69.40;;;;;;5012265;28;20165;-36
2023/01/17 14:09:13;;;;;;;4.25;1.10;;;10.10;72.70;;;;;;5008260;28;20499;-36
2023/01/17 14:12:09;;;;;;;1.75;0.50;;;10.00;72.40;;;;;;5007683;28;20069;-36
2023/01/17 14:14:41;;;;;;;3.50;0.70;;;9.60;74.80;;;;;;5002133;28;20038;-35
2023/01/17 14:17:22;;;;;;;3.33;0.50;;;8.90;76.80;;;;;;5002868;28;20598;-39
2023/01/17 14:20:01;;;;;;;1.83;0.50;;;8.20;78.80;;;;;;4998230;28;20041;-36
2023/01/17 14:22:30;;;;;;;4.13;0.40;;;7.50;85.50;;;;;;4999985;28;20507;-37
2023/01/17 14:25:08;;;;;;;3.35;0.40;;;7.20;90.00;;;;;;5005038;28;20077;-36
2023/01/17 14:27:44;;;;;;;6.70;0.60;;;6.90;90.40;;;;;;5004759;28;20034;-40
2023/01/17 14:30:16;;;;;;;1.67;1.08;;;6.60;91.10;;;;;;5004836;28;20041;-35
2023/01/17 14:33:21;;;;;;;1.08;0.40;;;6.40;91.60;;;;;;4998649;28;20057;-40
2023/01/17 14:36:14;;;;;;;2.63;0.68;;;6.10;91.40;;;;;;4993777;28;20094;-35
2023/01/17 14:38:42;;;;;;;4.28;0.60;;;5.80;91.00;;;;;;4983332;28;20066;-36
2023/01/17 14:41:12;;;;;;;2.13;0.50;;;5.60;92.90;;;;;;4987055;28;20508;-36
2023/01/17 14:43:41;;;;;;;2.33;0.50;;;5.50;93.10;;;;;;4986074;28;20042;-37
2023/01/17 14:46:21;;;;;;;1.77;0.55;;;5.40;93.80;;;;;;4988571;28;20137;-36
2023/01/17 14:48:47;;;;;;;2.42;0.50;;;5.20;94.10;;;;;;4989949;28;20042;-36